Time;durP1;ratioP1;P1;durP2;ratioP2;P2;SDS_P1;SDS_P2;PMS_P1;PMS_P2;Temp;Humidity;BMP_temperature;BMP_pressure;BME280_temperature;BME280_humidity;BME280_pressure;Samples;Min_cycle;Max_cycle;Signal;HPM_P1;HPM_P2
2023/07/26 00:02:19;;;;;;;16.58;14.85;;;12.90;99.90;;;;;;5032162;28;20045;-81
2023/07/26 00:04:44;;;;;;;19.08;17.48;;;12.80;99.90;;;;;;5033524;28;20403;-81
2023/07/26 00:07:10;;;;;;;17.25;16.00;;;12.80;99.90;;;;;;5032072;28;20033;-81
2023/07/26 00:09:36;;;;;;;20.00;18.33;;;12.80;99.90;;;;;;5032226;28;20120;-82
2023/07/26 00:12:02;;;;;;;21.38;19.60;;;12.80;99.90;;;;;;5031508;28;20073;-81
2023/07/26 00:14:28;;;;;;;20.65;19.13;;;12.80;99.90;;;;;;5033296;28;20041;-81
2023/07/26 00:16:54;;;;;;;21.52;19.98;;;12.90;99.90;;;;;;5031143;28;20503;-81
2023/07/26 00:19:20;;;;;;;19.38;17.67;;;12.90;99.90;;;;;;5033192;28;20399;-82
2023/07/26 00:21:46;;;;;;;17.00;15.48;;;12.80;99.90;;;;;;5031836;28;20041;-81
2023/07/26 00:24:12;;;;;;;19.83;18.33;;;12.70;99.90;;;;;;5031690;28;20041;-82
2023/07/26 00:26:38;;;;;;;18.15;16.45;;;12.80;99.90;;;;;;5032667;28;20476;-81
2023/07/26 00:29:03;;;;;;;20.30;18.60;;;12.80;99.90;;;;;;5031883;28;20037;-81
2023/07/26 00:31:29;;;;;;;20.02;18.42;;;12.80;99.90;;;;;;5033080;28;20052;-81
2023/07/26 00:33:55;;;;;;;19.58;17.92;;;12.90;99.90;;;;;;5031891;28;20037;-81
2023/07/26 00:36:21;;;;;;;21.48;19.85;;;12.80;99.90;;;;;;5031767;28;20526;-81
2023/07/26 00:38:46;;;;;;;16.40;14.80;;;12.80;99.90;;;;;;5032608;28;20400;-81
2023/07/26 00:41:12;;;;;;;16.65;15.18;;;12.70;99.90;;;;;;5031194;28;20594;-81
2023/07/26 00:43:38;;;;;;;22.02;20.30;;;12.80;99.90;;;;;;5031573;28;20038;-81
2023/07/26 00:46:06;;;;;;;19.23;17.85;;;12.70;99.90;;;;;;5031241;28;20030;-81
2023/07/26 00:48:32;;;;;;;16.08;14.25;;;12.70;99.90;;;;;;5032734;28;20048;-82
2023/07/26 00:51:00;;;;;;;17.00;15.73;;;12.70;99.90;;;;;;5014715;28;20041;-81
2023/07/26 00:53:26;;;;;;;20.75;19.27;;;12.70;99.90;;;;;;5030593;28;20041;-81
2023/07/26 00:55:53;;;;;;;16.15;14.75;;;12.70;99.90;;;;;;5032610;28;20439;-81
2023/07/26 00:58:20;;;;;;;17.10;15.82;;;12.70;99.90;;;;;;5031116;28;20136;-82
2023/07/26 01:00:47;;;;;;;15.82;14.55;;;12.70;99.90;;;;;;5031216;28;20041;-82
2023/07/26 01:03:13;;;;;;;17.17;15.95;;;12.70;99.90;;;;;;5031350;28;20073;-81
2023/07/26 01:06:04;;;;;;;16.75;15.38;;;12.70;99.90;;;;;;5032181;28;20054;-81
2023/07/26 01:08:53;;;;;;;16.10;14.85;;;12.70;99.90;;;;;;5031871;28;20068;-81
2023/07/26 01:11:32;;;;;;;14.95;13.65;;;12.70;99.90;;;;;;5031065;28;20427;-81
2023/07/26 01:14:23;;;;;;;19.73;18.23;;;12.70;99.90;;;;;;5032109;28;20467;-81
2023/07/26 01:16:49;;;;;;;18.23;16.75;;;12.80;99.90;;;;;;5022704;28;20064;-81
2023/07/26 01:19:15;;;;;;;15.27;13.77;;;12.80;99.90;;;;;;5030592;28;20054;-82
2023/07/26 01:21:41;;;;;;;18.75;17.25;;;12.70;99.90;;;;;;5030910;28;20507;-81
2023/07/26 01:24:06;;;;;;;17.27;15.88;;;12.80;99.90;;;;;;5013717;28;20083;-82
2023/07/26 01:26:32;;;;;;;18.75;17.27;;;12.80;99.90;;;;;;5031961;28;20038;-82
2023/07/26 01:28:58;;;;;;;17.17;15.77;;;12.80;99.90;;;;;;5030300;28;20484;-82
2023/07/26 01:31:24;;;;;;;18.63;17.17;;;12.80;99.90;;;;;;5030789;28;20043;-82
2023/07/26 01:33:52;;;;;;;17.27;15.80;;;13.00;99.90;;;;;;5030816;28;20052;-82
2023/07/26 01:36:22;;;;;;;18.20;16.58;;;12.80;99.90;;;;;;5031833;28;20112;-81
2023/07/26 01:38:48;;;;;;;17.33;16.00;;;12.80;99.90;;;;;;5013468;28;20073;-81
2023/07/26 01:41:15;;;;;;;18.73;16.85;;;12.70;99.90;;;;;;5030604;28;20044;-82
2023/07/26 01:43:41;;;;;;;17.08;15.63;;;12.70;99.90;;;;;;5031873;28;20037;-82
2023/07/26 01:46:13;;;;;;;21.00;19.27;;;12.90;99.90;;;;;;5031764;28;20036;-82
2023/07/26 01:48:39;;;;;;;21.65;19.55;;;12.70;99.90;;;;;;5030656;28;20053;-82
2023/07/26 01:51:05;;;;;;;18.90;17.23;;;12.60;99.90;;;;;;5030253;28;20506;-81
2023/07/26 01:53:30;;;;;;;17.33;15.75;;;12.60;99.90;;;;;;5031015;28;20033;-81
2023/07/26 01:55:56;;;;;;;18.42;16.73;;;12.50;99.90;;;;;;5030209;28;20067;-81
2023/07/26 01:58:21;;;;;;;20.00;18.50;;;12.40;99.90;;;;;;5031290;28;20407;-81
2023/07/26 02:00:47;;;;;;;19.52;17.83;;;12.40;99.90;;;;;;5031391;28;20034;-81
2023/07/26 02:03:12;;;;;;;20.35;18.67;;;12.30;99.90;;;;;;5030416;28;20041;-81
2023/07/26 02:05:45;;;;;;;22.38;20.63;;;12.20;99.90;;;;;;5030077;28;20048;-81
2023/07/26 02:08:12;;;;;;;24.88;22.80;;;12.10;99.90;;;;;;5013142;28;20046;-81
2023/07/26 02:10:39;;;;;;;19.92;18.35;;;12.10;99.90;;;;;;5030042;28;20041;-81
2023/07/26 02:13:05;;;;;;;20.73;19.05;;;12.00;99.90;;;;;;5013608;28;20073;-82
2023/07/26 02:15:31;;;;;;;22.85;21.13;;;12.00;99.90;;;;;;5030044;28;20454;-82
2023/07/26 02:17:57;;;;;;;23.95;21.95;;;12.00;99.90;;;;;;5029981;28;20053;-82
2023/07/26 02:20:23;;;;;;;25.17;23.27;;;11.80;99.90;;;;;;5030780;28;20077;-82
2023/07/26 02:22:48;;;;;;;24.55;22.75;;;11.80;99.90;;;;;;5031305;28;20414;-82
2023/07/26 02:25:14;;;;;;;24.02;22.10;;;11.70;99.90;;;;;;5030029;28;20128;-81
2023/07/26 02:27:40;;;;;;;23.98;21.88;;;11.70;99.90;;;;;;5030228;28;20045;-82
2023/07/26 02:30:06;;;;;;;23.83;21.90;;;11.60;99.90;;;;;;5030169;28;20124;-82
2023/07/26 02:32:32;;;;;;;22.67;20.85;;;11.50;99.90;;;;;;5030064;28;20153;-82
2023/07/26 02:34:58;;;;;;;23.38;21.30;;;11.50;99.90;;;;;;5029485;28;20034;-82
2023/07/26 02:37:23;;;;;;;24.92;22.88;;;11.50;99.90;;;;;;5029794;28;20049;-82
2023/07/26 02:39:50;;;;;;;23.67;21.85;;;11.40;99.90;;;;;;5029737;28;20039;-82
2023/07/26 02:42:16;;;;;;;25.40;23.60;;;11.40;99.90;;;;;;5034774;28;20033;-82
2023/07/26 02:44:41;;;;;;;24.63;22.83;;;11.90;99.90;;;;;;5017462;28;20037;-82
2023/07/26 02:47:07;;;;;;;28.05;25.85;;;11.30;99.90;;;;;;5034900;28;20041;-82
2023/07/26 02:49:33;;;;;;;29.70;27.60;;;11.30;99.90;;;;;;5034528;28;20112;-82
2023/07/26 02:51:59;;;;;;;28.42;26.42;;;11.30;99.90;;;;;;5034654;28;20044;-83
2023/07/26 02:54:24;;;;;;;28.15;26.08;;;11.30;99.90;;;;;;5033302;28;20179;-82
2023/07/26 02:56:50;;;;;;;29.05;26.95;;;11.20;99.90;;;;;;5017375;28;20037;-82
2023/07/26 02:59:18;;;;;;;29.05;26.95;;;11.30;99.90;;;;;;5033500;28;20037;-82
2023/07/26 03:01:44;;;;;;;34.65;32.13;;;11.20;99.90;;;;;;5033233;28;20530;-82
2023/07/26 03:04:10;;;;;;;33.85;31.38;;;11.40;99.90;;;;;;5034229;28;20049;-81
2023/07/26 03:06:36;;;;;;;30.05;27.75;;;11.10;99.90;;;;;;5033427;28;20104;-82
2023/07/26 03:09:02;;;;;;;34.50;32.00;;;11.20;99.90;;;;;;5033267;28;20037;-82
2023/07/26 03:11:27;;;;;;;31.92;29.52;;;11.40;99.90;;;;;;5016527;28;20037;-82
2023/07/26 03:13:53;;;;;;;31.95;29.65;;;11.00;99.90;;;;;;5016603;28;20470;-82
2023/07/26 03:16:19;;;;;;;32.08;29.95;;;11.00;99.90;;;;;;5033132;28;20088;-82
2023/07/26 03:18:44;;;;;;;35.53;33.00;;;11.30;99.90;;;;;;5032265;28;20038;-82
2023/07/26 03:21:10;;;;;;;36.60;34.00;;;11.00;99.90;;;;;;5034273;28;20041;-82
2023/07/26 03:23:37;;;;;;;35.35;32.92;;;11.00;99.90;;;;;;5032816;28;20108;-82
2023/07/26 03:26:02;;;;;;;41.72;38.88;;;11.00;99.90;;;;;;5032887;28;20038;-82
2023/07/26 03:28:28;;;;;;;41.22;37.92;;;11.00;99.90;;;;;;5032910;28;20128;-82
2023/07/26 03:30:54;;;;;;;42.15;39.40;;;11.00;99.90;;;;;;5032800;28;20048;-82
2023/07/26 03:33:19;;;;;;;42.83;39.63;;;11.00;99.90;;;;;;5032191;28;20038;-82
2023/07/26 03:35:45;;;;;;;35.47;33.03;;;11.00;99.90;;;;;;5033966;28;20048;-82
2023/07/26 03:38:11;;;;;;;44.08;41.15;;;11.00;99.90;;;;;;5032515;28;20045;-82
2023/07/26 03:40:38;;;;;;;48.90;45.75;;;10.90;99.90;;;;;;5033774;28;20052;-82
2023/07/26 03:43:03;;;;;;;66.80;62.08;;;10.90;99.90;;;;;;5033901;28;20048;-82
2023/07/26 03:45:29;;;;;;;37.50;35.08;;;10.90;99.90;;;;;;5033819;28;20029;-82
2023/07/26 03:47:55;;;;;;;42.10;39.28;;;10.90;99.90;;;;;;5015527;28;20072;-81
2023/07/26 03:50:21;;;;;;;48.58;45.17;;;11.00;99.90;;;;;;5016313;28;20045;-82
2023/07/26 03:52:47;;;;;;;58.45;54.42;;;11.00;99.90;;;;;;5032241;28;20096;-82
2023/07/26 03:55:13;;;;;;;54.05;50.35;;;11.20;99.90;;;;;;5032640;28;20038;-82
2023/07/26 03:57:38;;;;;;;52.47;48.72;;;11.20;99.90;;;;;;5016001;28;20041;-82
2023/07/26 04:00:04;;;;;;;81.15;76.03;;;11.30;99.90;;;;;;5032234;28;20038;-82
2023/07/26 04:02:31;;;;;;;60.35;56.28;;;11.30;99.90;;;;;;5015388;28;20124;-82
2023/07/26 04:04:57;;;;;;;46.92;43.67;;;11.50;99.90;;;;;;5032260;28;20041;-82
2023/07/26 04:07:22;;;;;;;51.53;48.08;;;11.50;99.90;;;;;;5032002;28;20323;-82
2023/07/26 04:09:48;;;;;;;47.78;44.60;;;11.50;99.90;;;;;;5032060;28;20041;-82
2023/07/26 04:12:14;;;;;;;38.92;36.00;;;11.60;99.90;;;;;;5032069;28;20087;-82
2023/07/26 04:14:40;;;;;;;39.15;36.45;;;11.60;99.90;;;;;;5032146;28;20041;-82
2023/07/26 04:17:06;;;;;;;30.48;28.35;;;11.70;99.90;;;;;;5031409;28;20498;-81
2023/07/26 04:19:31;;;;;;;28.52;26.30;;;11.70;99.90;;;;;;5031878;28;20121;-82
2023/07/26 04:21:57;;;;;;;25.50;23.45;;;11.80;99.90;;;;;;5015200;28;20033;-82
2023/07/26 04:24:23;;;;;;;27.20;25.27;;;11.90;99.90;;;;;;5031778;28;20128;-82
2023/07/26 04:26:49;;;;;;;23.42;21.52;;;11.90;99.90;;;;;;5031726;28;20120;-82
2023/07/26 04:29:15;;;;;;;25.33;23.27;;;11.90;99.90;;;;;;5031753;28;20503;-82
2023/07/26 04:31:40;;;;;;;23.35;21.23;;;12.00;99.90;;;;;;5032392;28;20385;-82
2023/07/26 04:34:06;;;;;;;23.48;21.58;;;12.10;99.90;;;;;;5031916;28;20498;-82
2023/07/26 04:36:32;;;;;;;21.20;19.27;;;12.10;99.90;;;;;;5031449;28;20049;-82
2023/07/26 04:38:57;;;;;;;26.67;24.23;;;12.10;99.90;;;;;;5031350;28;20472;-82
2023/07/26 04:41:23;;;;;;;20.38;18.58;;;12.20;99.90;;;;;;5031463;28;20500;-82
2023/07/26 04:43:48;;;;;;;21.65;19.75;;;12.20;99.90;;;;;;5015064;28;20041;-82
2023/07/26 04:46:15;;;;;;;24.00;22.13;;;12.30;99.90;;;;;;5032235;28;20476;-82
2023/07/26 04:48:41;;;;;;;18.77;17.15;;;12.40;99.90;;;;;;5032693;28;20076;-82
2023/07/26 04:51:07;;;;;;;20.42;18.42;;;12.40;99.90;;;;;;5031188;28;20476;-82
2023/07/26 04:53:32;;;;;;;18.50;16.85;;;12.50;99.90;;;;;;5014665;28;20126;-82
2023/07/26 04:55:58;;;;;;;16.20;14.80;;;12.50;99.90;;;;;;5032627;28;20041;-82
2023/07/26 04:58:24;;;;;;;18.02;16.55;;;12.60;99.90;;;;;;5031148;28;20087;-82
2023/07/26 05:00:50;;;;;;;16.42;14.82;;;12.70;99.90;;;;;;5031906;28;20117;-82
2023/07/26 05:03:15;;;;;;;14.13;12.93;;;12.90;99.90;;;;;;5030800;28;20041;-82
2023/07/26 05:05:41;;;;;;;14.18;12.88;;;12.90;99.90;;;;;;5030932;28;20041;-82
2023/07/26 05:08:08;;;;;;;14.35;13.05;;;13.30;99.90;;;;;;5030907;28;20044;-82
2023/07/26 05:10:35;;;;;;;10.82;9.73;;;13.20;99.90;;;;;;5030807;28;20068;-82
2023/07/26 05:13:01;;;;;;;10.88;9.88;;;13.30;99.90;;;;;;5030739;28;20076;-82
2023/07/26 05:15:26;;;;;;;11.07;10.05;;;13.50;99.90;;;;;;5014129;28;20537;-82
2023/07/26 05:17:52;;;;;;;9.75;8.48;;;13.70;99.90;;;;;;5030500;28;20125;-82
2023/07/26 05:20:18;;;;;;;12.18;11.07;;;13.90;99.90;;;;;;5030745;28;20144;-82
2023/07/26 05:22:44;;;;;;;10.68;9.43;;;14.20;99.90;;;;;;5030691;28;20034;-82
2023/07/26 05:25:09;;;;;;;10.48;9.60;;;14.40;99.90;;;;;;5030604;28;20045;-82
2023/07/26 05:27:35;;;;;;;10.82;9.65;;;14.70;99.90;;;;;;5031918;28;20407;-82
2023/07/26 05:30:01;;;;;;;16.83;15.63;;;14.90;99.90;;;;;;5030259;28;20072;-82
2023/07/26 05:32:27;;;;;;;12.38;11.35;;;15.10;99.90;;;;;;5031971;28;20107;-82
2023/07/26 05:34:58;;;;;;;15.25;14.15;;;15.00;99.90;;;;;;5031803;28;20065;-82
2023/07/26 05:37:24;;;;;;;18.25;17.00;;;14.80;99.90;;;;;;5030394;28;20132;-82
2023/07/26 05:39:51;;;;;;;13.35;12.27;;;14.90;99.90;;;;;;5030565;28;20091;-82
2023/07/26 05:42:18;;;;;;;12.40;11.40;;;14.80;99.90;;;;;;5030524;28;20037;-82
2023/07/26 05:44:43;;;;;;;11.80;10.90;;;14.80;99.90;;;;;;5030060;28;20045;-82
2023/07/26 05:47:10;;;;;;;10.63;9.60;;;14.80;99.90;;;;;;5031517;28;20082;-82
2023/07/26 05:49:36;;;;;;;8.93;8.15;;;14.80;99.90;;;;;;5014205;28;20124;-82
2023/07/26 05:52:01;;;;;;;12.80;11.65;;;14.80;99.90;;;;;;5013858;28;20132;-82
2023/07/26 05:54:27;;;;;;;11.60;10.70;;;14.70;99.90;;;;;;5030295;28;20124;-82
2023/07/26 05:56:53;;;;;;;12.18;11.27;;;14.60;99.90;;;;;;5030450;28;20034;-82
2023/07/26 05:59:18;;;;;;;14.65;13.65;;;14.60;99.90;;;;;;5029679;28;20041;-82
2023/07/26 06:01:44;;;;;;;12.10;11.20;;;14.50;99.90;;;;;;5030199;28;20033;-82
2023/07/26 06:04:09;;;;;;;11.27;10.25;;;14.40;99.90;;;;;;5014101;28;20042;-82
2023/07/26 06:06:35;;;;;;;13.80;12.00;;;14.40;99.90;;;;;;5030178;28;20068;-82
2023/07/26 06:09:01;;;;;;;8.70;7.72;;;14.30;99.90;;;;;;5030096;28;20045;-82
2023/07/26 06:11:26;;;;;;;12.52;11.57;;;14.30;99.90;;;;;;5014114;28;20038;-82
2023/07/26 06:13:54;;;;;;;14.15;13.05;;;14.30;99.90;;;;;;5013155;28;20476;-82
2023/07/26 06:16:20;;;;;;;10.43;9.52;;;14.30;99.90;;;;;;5033533;28;20045;-82
2023/07/26 06:18:45;;;;;;;14.27;12.98;;;14.40;99.90;;;;;;5033957;28;20052;-82
2023/07/26 06:21:11;;;;;;;14.18;12.90;;;14.40;99.90;;;;;;5034291;28;20040;-81
2023/07/26 06:23:37;;;;;;;12.52;11.55;;;14.60;99.90;;;;;;5017816;28;20132;-81
2023/07/26 06:26:03;;;;;;;12.15;11.23;;;14.60;99.90;;;;;;5035293;28;20491;-81
2023/07/26 06:28:29;;;;;;;10.35;9.43;;;14.70;99.90;;;;;;5034725;28;20041;-82
2023/07/26 06:30:55;;;;;;;8.35;7.65;;;14.90;99.90;;;;;;5017330;28;20076;-81
2023/07/26 06:33:21;;;;;;;11.85;9.32;;;15.10;99.90;;;;;;5017437;28;20041;-81
2023/07/26 06:35:47;;;;;;;8.95;8.13;;;15.20;99.90;;;;;;5035157;28;20092;-82
2023/07/26 06:38:12;;;;;;;14.18;13.13;;;15.30;99.90;;;;;;5033813;28;20042;-81
2023/07/26 06:40:38;;;;;;;15.05;13.82;;;15.60;99.90;;;;;;5033783;28;20053;-81
2023/07/26 06:43:05;;;;;;;7.70;6.15;;;16.10;99.90;;;;;;5033183;28;20033;-81
2023/07/26 06:45:31;;;;;;;7.28;5.65;;;17.10;99.90;;;;;;5033566;28;20112;-82
2023/07/26 06:47:56;;;;;;;5.20;3.67;;;18.10;99.90;;;;;;5033504;28;20124;-82
2023/07/26 06:50:22;;;;;;;6.38;3.95;;;18.70;99.90;;;;;;5017119;28;20069;-82
2023/07/26 06:52:48;;;;;;;5.03;4.45;;;18.80;99.90;;;;;;5017014;28;20041;-81
2023/07/26 06:55:14;;;;;;;7.30;6.45;;;18.70;99.90;;;;;;5034587;28;20626;-81
2023/07/26 06:57:40;;;;;;;4.53;4.05;;;18.40;99.90;;;;;;5016635;28;20101;-81
2023/07/26 07:00:08;;;;;;;4.35;3.67;;;18.30;99.90;;;;;;5033288;28;20037;-82
2023/07/26 07:02:33;;;;;;;4.55;3.42;;;18.40;99.90;;;;;;5033293;28;20041;-82
2023/07/26 07:04:59;;;;;;;6.15;3.67;;;18.80;99.90;;;;;;5034719;28;20499;-82
2023/07/26 07:07:25;;;;;;;6.57;5.50;;;19.40;99.90;;;;;;5034408;28;20034;-82
2023/07/26 07:09:50;;;;;;;5.20;4.70;;;19.70;99.90;;;;;;5033235;28;20041;-82
2023/07/26 07:12:16;;;;;;;6.05;4.82;;;19.70;99.90;;;;;;5032664;28;20083;-82
2023/07/26 07:14:42;;;;;;;5.30;4.80;;;19.20;99.90;;;;;;5032983;28;20041;-82
2023/07/26 07:17:08;;;;;;;7.15;5.03;;;18.80;99.90;;;;;;5032765;28;20053;-81
2023/07/26 07:19:34;;;;;;;5.78;5.28;;;18.30;99.90;;;;;;5031888;28;20606;-82
2023/07/26 07:21:59;;;;;;;7.20;5.80;;;17.90;99.90;;;;;;5031755;28;20033;-82
2023/07/26 07:24:25;;;;;;;6.53;5.75;;;17.40;99.90;;;;;;5031935;28;20045;-81
2023/07/26 07:26:51;;;;;;;6.85;6.15;;;17.00;99.90;;;;;;5032071;28;20111;-82
2023/07/26 07:29:16;;;;;;;8.55;5.90;;;16.70;99.90;;;;;;5032791;28;20044;-81
2023/07/26 07:31:42;;;;;;;6.53;5.90;;;16.40;99.90;;;;;;5031803;28;20041;-81
2023/07/26 07:34:08;;;;;;;6.90;6.20;;;16.20;99.90;;;;;;5031713;28;20399;-81
2023/07/26 07:36:33;;;;;;;9.50;8.63;;;16.00;99.90;;;;;;5032954;28;20029;-81
2023/07/26 07:38:59;;;;;;;8.93;5.65;;;15.90;99.90;;;;;;5015058;28;20132;-81
2023/07/26 07:41:25;;;;;;;6.93;6.15;;;15.80;99.90;;;;;;5031163;28;20091;-81
2023/07/26 07:43:50;;;;;;;13.88;12.88;;;15.90;99.90;;;;;;5014954;28;20069;-81
2023/07/26 07:46:16;;;;;;;7.40;6.40;;;16.00;99.90;;;;;;5031395;28;20119;-81
2023/07/26 07:48:42;;;;;;;13.48;12.32;;;16.10;99.90;;;;;;5031834;28;20045;-82
2023/07/26 07:51:07;;;;;;;9.35;8.60;;;16.20;99.90;;;;;;5014836;28;20048;-81
2023/07/26 07:53:33;;;;;;;10.80;9.95;;;16.10;99.90;;;;;;5031325;28;20038;-82
2023/07/26 07:55:59;;;;;;;12.85;11.80;;;16.20;99.90;;;;;;5030680;28;20124;-82
2023/07/26 07:58:26;;;;;;;19.70;8.63;;;16.40;99.90;;;;;;5031122;28;20091;-82
2023/07/26 08:00:57;;;;;;;6.13;5.53;;;17.00;99.90;;;;;;5014641;28;20037;-82
2023/07/26 08:03:23;;;;;;;7.28;4.97;;;17.40;99.90;;;;;;5032609;28;20160;-82
2023/07/26 08:05:50;;;;;;;6.65;4.00;;;18.50;99.90;;;;;;5032561;28;20120;-82
2023/07/26 08:08:16;;;;;;;6.32;4.47;;;19.90;99.90;;;;;;5031073;28;20049;-82
2023/07/26 08:10:42;;;;;;;5.60;4.13;;;21.00;99.90;;;;;;5030670;28;20171;-82
2023/07/26 08:13:07;;;;;;;5.40;4.90;;;22.00;99.90;;;;;;5032141;28;20041;-83
2023/07/26 08:15:36;;;;;;;4.70;4.28;;;22.80;99.90;;;;;;5030963;28;20115;-82
2023/07/26 08:18:02;;;;;;;9.07;8.32;;;22.70;99.90;;;;;;4992986;28;1097936;-83
2023/07/26 08:20:32;;;;;;;5.45;4.95;;;22.20;99.90;;;;;;5015514;28;20507;-82
2023/07/26 08:22:58;;;;;;;5.40;4.90;;;21.90;99.90;;;;;;5032703;28;20385;-82
2023/07/26 08:25:24;;;;;;;4.80;4.40;;;21.40;99.90;;;;;;5031819;28;20075;-82
2023/07/26 08:27:50;;;;;;;5.07;4.57;;;20.70;99.90;;;;;;5031726;28;20041;-82
2023/07/26 08:30:15;;;;;;;5.65;5.15;;;20.30;99.90;;;;;;5033099;28;20038;-82
2023/07/26 08:32:41;;;;;;;4.60;4.20;;;19.90;99.90;;;;;;5031521;28;20080;-82
2023/07/26 08:35:07;;;;;;;5.93;4.28;;;20.60;99.90;;;;;;5031607;28;20045;-82
2023/07/26 08:37:32;;;;;;;4.20;3.80;;;20.70;99.90;;;;;;5030617;28;20045;-82
2023/07/26 08:39:58;;;;;;;5.47;4.93;;;20.40;99.90;;;;;;5032613;28;20049;-82
2023/07/26 08:42:24;;;;;;;7.82;6.00;;;20.10;99.90;;;;;;5031406;28;20091;-82
2023/07/26 08:44:50;;;;;;;6.38;5.80;;;20.10;99.90;;;;;;5032770;28;20064;-82
2023/07/26 08:47:18;;;;;;;5.13;4.63;;;20.40;99.90;;;;;;5031471;28;20095;-82
2023/07/26 08:49:44;;;;;;;6.10;5.40;;;21.40;99.90;;;;;;5031569;28;20037;-82
2023/07/26 08:52:10;;;;;;;6.53;6.03;;;22.10;99.90;;;;;;5031919;28;20128;-82
2023/07/26 08:54:37;;;;;;;6.38;5.78;;;22.10;99.90;;;;;;5031073;28;20558;-82
2023/07/26 08:57:03;;;;;;;8.30;7.63;;;21.80;99.90;;;;;;5031084;28;20081;-82
2023/07/26 08:59:29;;;;;;;14.18;13.18;;;21.30;99.90;;;;;;5030924;28;20076;-82
2023/07/26 09:01:56;;;;;;;11.95;11.13;;;20.90;99.90;;;;;;5031082;28;20045;-82
2023/07/26 09:04:23;;;;;;;7.35;6.80;;;20.40;99.90;;;;;;5031072;28;20044;-83
2023/07/26 09:06:49;;;;;;;8.55;7.72;;;20.40;99.90;;;;;;5014026;28;20106;-82
2023/07/26 09:09:15;;;;;;;8.70;7.50;;;20.30;99.90;;;;;;5030892;28;20083;-82
2023/07/26 09:11:51;;;;;;;10.77;9.77;;;20.60;99.90;;;;;;5014430;28;20072;-82
2023/07/26 09:14:17;;;;;;;11.18;10.27;;;21.00;99.90;;;;;;5032167;28;20063;-82
2023/07/26 09:16:44;;;;;;;13.05;12.15;;;21.20;99.90;;;;;;5030938;28;20129;-82
2023/07/26 09:19:09;;;;;;;15.63;14.52;;;21.50;99.90;;;;;;5030665;28;20056;-83
2023/07/26 09:21:36;;;;;;;16.60;15.40;;;21.70;99.90;;;;;;5013784;28;20042;-82
2023/07/26 09:24:03;;;;;;;14.70;13.73;;;21.80;99.90;;;;;;5014406;28;20087;-82
2023/07/26 09:26:34;;;;;;;13.30;12.40;;;22.10;99.90;;;;;;5030607;28;20041;-82
2023/07/26 09:28:59;;;;;;;12.77;11.98;;;22.30;99.90;;;;;;5030844;28;20050;-83
2023/07/26 09:31:32;;;;;;;16.13;15.13;;;22.90;99.90;;;;;;5031852;28;20052;-83
2023/07/26 09:34:04;;;;;;;23.67;22.10;;;23.20;99.90;;;;;;5030657;28;20045;-82
2023/07/26 09:37:03;;;;;;;25.05;23.60;;;23.60;99.90;;;;;;5030143;28;20395;-82
2023/07/26 09:39:29;;;;;;;32.13;30.25;;;23.80;99.90;;;;;;5008998;28;20057;-82
2023/07/26 09:42:08;;;;;;;42.28;39.78;;;23.80;99.90;;;;;;5030367;28;20041;-82
2023/07/26 09:44:35;;;;;;;59.65;56.20;;;24.10;99.90;;;;;;5014016;28;20041;-83
2023/07/26 09:47:02;;;;;;;83.07;78.40;;;24.40;99.90;;;;;;5013815;28;20048;-82
2023/07/26 09:49:29;;;;;;;145.93;137.45;;;24.70;99.90;;;;;;5030467;28;20042;-83
2023/07/26 09:51:58;;;;;;;310.98;291.40;;;24.90;99.90;;;;;;5013315;28;20083;-82
2023/07/26 09:54:27;;;;;;;516.88;482.35;;;24.70;99.90;;;;;;5030506;28;20103;-82
2023/07/26 09:56:54;;;;;;;540.83;503.33;;;23.90;99.90;;;;;;5030417;28;20037;-82
2023/07/26 09:59:22;;;;;;;618.70;575.22;;;23.20;99.90;;;;;;5030061;28;20034;-82
2023/07/26 10:01:48;;;;;;;663.85;615.95;;;23.40;99.90;;;;;;5030115;28;20045;-83
2023/07/26 10:04:25;;;;;;;577.95;537.15;;;23.40;99.90;;;;;;5030344;28;20029;-83
2023/07/26 10:06:54;;;;;;;283.88;266.23;;;22.50;99.90;;;;;;5030341;28;20396;-82
2023/07/26 10:09:22;;;;;;;168.80;158.80;;;21.70;99.90;;;;;;5030158;28;20038;-82
2023/07/26 10:11:49;;;;;;;53.58;50.55;;;21.10;99.90;;;;;;5031213;28;20115;-82
2023/07/26 10:14:16;;;;;;;43.20;40.70;;;20.60;99.90;;;;;;5030062;28;20505;-82
2023/07/26 10:16:43;;;;;;;34.92;32.92;;;20.30;99.90;;;;;;5030248;28;20052;-82
2023/07/26 10:19:11;;;;;;;27.52;25.98;;;20.00;99.90;;;;;;5029471;28;20057;-82
2023/07/26 10:21:37;;;;;;;26.95;25.27;;;19.90;99.90;;;;;;5030241;28;20403;-82
2023/07/26 10:24:04;;;;;;;16.80;15.73;;;19.90;99.90;;;;;;5029994;28;20128;-82
2023/07/26 10:26:33;;;;;;;14.98;13.88;;;20.20;99.90;;;;;;5030099;28;20087;-82
2023/07/26 10:28:59;;;;;;;13.45;12.40;;;20.60;99.90;;;;;;5030242;28;20072;-82
2023/07/26 10:31:26;;;;;;;15.25;14.25;;;20.80;99.90;;;;;;5029697;28;20045;-82
2023/07/26 10:33:56;;;;;;;18.50;17.33;;;20.90;99.90;;;;;;5029462;28;20465;-82
2023/07/26 10:36:30;;;;;;;18.20;17.02;;;21.10;99.90;;;;;;5030008;28;20041;-82
2023/07/26 10:39:01;;;;;;;15.85;14.70;;;21.10;99.90;;;;;;5029664;28;20042;-82
2023/07/26 10:41:29;;;;;;;20.75;19.45;;;21.10;99.90;;;;;;5030142;28;20088;-82
2023/07/26 10:44:09;;;;;;;20.80;19.50;;;21.20;99.90;;;;;;5029941;28;20037;-82
2023/07/26 10:46:49;;;;;;;21.98;20.38;;;21.20;99.90;;;;;;5030871;28;20046;-82
2023/07/26 10:49:45;;;;;;;23.13;21.75;;;21.30;99.90;;;;;;5029446;28;20041;-82
2023/07/26 10:52:11;;;;;;;31.00;29.20;;;21.60;99.90;;;;;;5028514;28;20415;-82
2023/07/26 10:54:44;;;;;;;43.40;40.88;;;21.90;99.90;;;;;;5030974;28;20042;-82
2023/07/26 10:57:13;;;;;;;65.95;62.25;;;22.00;99.90;;;;;;5030939;28;20089;-82
2023/07/26 10:59:55;;;;;;;78.50;74.13;;;22.10;99.90;;;;;;5030809;28;20045;-82
2023/07/26 11:02:38;;;;;;;96.57;90.97;;;21.90;99.90;;;;;;5014687;28;20128;-82
2023/07/26 11:05:08;;;;;;;120.97;114.00;;;22.10;99.90;;;;;;5033443;28;20037;-82
2023/07/26 11:07:58;;;;;;;163.98;154.65;;;22.10;99.90;;;;;;5033422;28;20088;-82
2023/07/26 11:10:36;;;;;;;226.90;213.55;;;22.40;99.90;;;;;;5033413;28;20049;-82
2023/07/26 11:13:16;;;;;;;212.75;200.38;;;22.50;99.90;;;;;;5033205;28;20037;-82
2023/07/26 11:15:47;;;;;;;194.95;183.10;;;22.40;99.90;;;;;;5016574;28;20041;-82
2023/07/26 11:18:14;;;;;;;207.43;194.90;;;22.20;99.90;;;;;;5032273;28;20538;-82
2023/07/26 11:20:45;;;;;;;306.10;287.63;;;22.30;99.90;;;;;;5033080;28;20080;-82
2023/07/26 11:23:18;;;;;;;376.88;353.38;;;22.30;99.90;;;;;;5033111;28;20045;-82
2023/07/26 11:25:52;;;;;;;395.98;371.17;;;22.20;99.90;;;;;;5016723;28;20049;-82
2023/07/26 11:28:18;;;;;;;472.77;441.65;;;22.40;99.90;;;;;;5033010;28;20049;-82
2023/07/26 11:30:52;;;;;;;431.15;403.75;;;22.60;99.90;;;;;;5033990;28;20045;-83
2023/07/26 11:33:33;;;;;;;269.88;253.82;;;22.50;99.90;;;;;;5032481;28;20364;-83
2023/07/26 11:36:01;;;;;;;97.65;92.22;;;21.40;99.40;;;;;;5032821;28;20056;-83
2023/07/26 11:38:27;;;;;;;59.15;55.83;;;20.70;99.90;;;;;;5032741;28;20099;-83
2023/07/26 11:40:56;;;;;;;37.78;35.53;;;20.00;99.90;;;;;;5032889;28;20419;-82
2023/07/26 11:43:22;;;;;;;13.57;12.48;;;19.70;99.90;;;;;;5016299;28;20053;-82
2023/07/26 11:45:48;;;;;;;12.85;11.80;;;19.20;99.90;;;;;;5032529;28;20119;-82
2023/07/26 11:48:15;;;;;;;9.32;8.35;;;18.90;99.90;;;;;;5032321;28;20041;-82
2023/07/26 11:50:41;;;;;;;6.18;5.68;;;18.50;99.90;;;;;;5032875;28;20392;-83
2023/07/26 11:53:12;;;;;;;3.72;3.33;;;18.20;99.90;;;;;;5032512;28;20042;-82
2023/07/26 11:55:39;;;;;;;6.95;4.63;;;17.90;99.90;;;;;;5033659;28;20053;-82
2023/07/26 11:58:08;;;;;;;9.05;6.05;;;17.80;99.90;;;;;;5032141;28;20041;-82
2023/07/26 12:00:38;;;;;;;9.75;7.00;;;17.60;99.90;;;;;;5015271;28;20037;-82
2023/07/26 12:03:05;;;;;;;19.40;16.27;;;17.40;99.90;;;;;;5032169;28;20042;-82
2023/07/26 12:05:32;;;;;;;22.80;21.17;;;17.20;99.90;;;;;;5032217;28;20037;-82
2023/07/26 12:08:07;;;;;;;17.60;15.95;;;16.90;99.90;;;;;;5032212;28;20042;-82
2023/07/26 12:10:38;;;;;;;21.10;19.35;;;16.60;99.90;;;;;;5015460;28;20033;-82
2023/07/26 12:13:23;;;;;;;19.70;18.15;;;16.40;99.90;;;;;;5030890;28;20034;-82
2023/07/26 12:15:57;;;;;;;12.80;11.70;;;16.20;99.90;;;;;;5031124;28;20111;-83
2023/07/26 12:18:24;;;;;;;27.35;25.75;;;16.00;99.90;;;;;;5032812;28;20527;-82
2023/07/26 12:21:08;;;;;;;18.42;17.02;;;16.00;99.90;;;;;;5032224;28;20041;-82
2023/07/26 12:23:49;;;;;;;22.75;21.17;;;16.10;99.90;;;;;;5031961;28;20037;-82
2023/07/26 12:26:16;;;;;;;19.85;18.48;;;16.40;99.90;;;;;;5031790;28;20041;-82
2023/07/26 12:28:43;;;;;;;23.73;22.13;;;16.90;99.90;;;;;;5031987;28;20431;-82
2023/07/26 12:31:20;;;;;;;15.65;14.68;;;17.50;99.90;;;;;;5031390;28;20081;-82
2023/07/26 12:34:06;;;;;;;6.30;5.38;;;17.90;99.90;;;;;;5031931;28;20415;-82